Portada
METAR-TAF:

METAR-TAF

Aeropuertos :

Topeka, Kansas, Estados Unidos

latitud: 38-56-29N, longitud: 095-39-02W, altitud: 329 m

Observación

El informe se hizo hace 1 hora y 4 minutos, a las 21:53 UTC
Viento 9 kt del norte con ráfagas de 18 kt
Temperatura 28°C
Humedad 48%
Presión 1020 hPa
Visibilidad: 8.0 km
Cielo despejado
calima

METAR: KFOE 012153Z 01009G18KT 5SM HZ CLR 28/16 A3013 RMK AO2 SLP193 T02780156

Hora: 17:57 (22:57 UTC)

Pronóstico

El informe se hizo hace 2 horas y 24 minutos, a las 20:33 UTC
Pronóstico válido del 01 a las 21 UTC al 02 a las 18 UTC
Viento 11 kt del norte-noreste
Visibilidad: 9.7 km
Nubes dispersas a una altura de 3500 ft
calima
A partir de las 02 a las 0500 UTC
Viento kt del norte
Visibilidad: 6.4 km
Escasas nubes a una altura de 25000 ft
humo

TAF: KFOE 012033Z 0121/0218 02011KT 6SM HZ SCT035 FM020500 00000KT 4SM FU FEW250

Observaciones y pronósticos meteorológicos de más de 4000 aeropuertos (mensajes METAR y TAF).

Los puntos amarillos y rojos representan las estaciones disponibles.

Ponga el ratón en el punto deseado para ver el nombre de la estación.

Haga clic para ver las observaciones y los pronósticos meteorológicos.

Para cambiar el mapa : haga clic en los botones verdes con una cruz de color negro para hacer un zoom, en el botón verde con un guión para alejar o en las flechas verdes para mapas adyacentes.


METAR-TAF: